North Pharsalia, New York
Current Conditions -  °F | °C
As of 4:55 PM on Monday 24 Nov 2014 (Local Time) from KN03 Reporting Station
Scattered Clouds Scattered Clouds  
Wind Chill: 63°   Ceiling: Unl
Heat Index: 63°   Visibility: 10mi
Dew Point: 50°   Wind: 17mph
Humidity: 63%   Direction: 200°SSW
Pressure: 29.45"   Gusts: 30mph
Location:  42.6183°N, 75.685°W
Report Text: KN03 242155Z AUTO 20015G26KT 10SM SCT048 SCT060 SCT075 17/10 A2945 RMK AO2
Loading
Personal Weather Stations






























Interactive Weather Map New forecast layout! Learn more

10-Day Weather Forecast

Advertisements
Track Severe Weather on mobile